createdAt,value
2019-05-16T00:00:11.405Z,48.30
2019-05-16T00:01:11.416Z,48.78
2019-05-16T00:03:04.326Z,48.68
2019-05-16T00:04:04.329Z,48.39
2019-05-16T00:05:58.466Z,49.64
2019-05-16T00:06:58.458Z,49.35
2019-05-16T00:08:50.153Z,50.21
2019-05-16T00:09:50.160Z,49.93
2019-05-16T00:11:43.074Z,49.73
2019-05-16T00:12:43.079Z,49.73
2019-05-16T00:14:35.990Z,50.40
2019-05-16T00:15:37.793Z,51.17
2019-05-16T00:17:28.902Z,51.54
2019-05-16T00:18:28.912Z,51.17
2019-05-16T00:20:21.823Z,50.69
2019-05-16T00:21:21.828Z,51.26
2019-05-16T00:23:14.734Z,52.03
2019-05-16T00:24:14.744Z,51.26
2019-05-16T00:26:07.960Z,50.78
2019-05-16T00:27:08.349Z,50.88
2019-05-16T00:29:00.569Z,51.26
2019-05-16T00:30:00.582Z,51.83
2019-05-16T00:31:53.494Z,50.81
2019-05-16T00:32:53.497Z,50.49
2019-05-16T00:34:47.809Z,50.49
2019-05-16T00:35:48.147Z,50.69
2019-05-16T00:37:39.401Z,50.69
2019-05-16T00:38:39.332Z,50.40
2019-05-16T00:40:32.254Z,50.21
2019-05-16T00:41:32.251Z,50.49
2019-05-16T00:43:25.157Z,51.35
2019-05-16T00:44:25.168Z,50.88
2019-05-16T00:46:20.081Z,50.40
2019-05-16T00:47:18.086Z,50.78
2019-05-16T00:49:10.990Z,51.26
2019-05-16T00:50:10.999Z,51.17
2019-05-16T00:52:03.915Z,51.54
2019-05-16T00:53:03.917Z,51.45
2019-05-16T00:54:57.992Z,51.83
2019-05-16T00:55:58.479Z,51.64
2019-05-16T00:57:49.743Z,51.71
2019-05-16T00:58:49.752Z,51.90
2019-05-16T01:00:42.663Z,51.52
2019-05-16T01:01:42.671Z,51.62
2019-05-16T01:03:37.673Z,51.90
2019-05-16T01:04:35.585Z,51.62
2019-05-16T01:06:28.773Z,52.28
2019-05-16T01:07:28.502Z,52.57
2019-05-16T01:09:21.425Z,52.48
2019-05-16T01:10:21.421Z,52.09
2019-05-16T01:12:14.334Z,51.71
2019-05-16T01:13:14.339Z,51.62
2019-05-16T01:15:07.718Z,51.62
2019-05-16T01:16:08.615Z,51.43
2019-05-16T01:18:00.632Z,51.23
2019-05-16T01:19:00.174Z,51.71
2019-05-16T01:20:53.082Z,50.95
2019-05-16T01:21:53.085Z,51.23
2019-05-16T01:23:48.074Z,51.14
2019-05-16T01:24:46.039Z,51.14
2019-05-16T01:26:39.326Z,50.67
2019-05-16T01:27:39.100Z,50.45
2019-05-16T01:29:32.016Z,50.54
2019-05-16T01:30:32.013Z,49.68
2019-05-16T01:32:24.922Z,49.68
2019-05-16T01:33:24.927Z,49.30
2019-05-16T01:35:18.798Z,49.02
2019-05-16T01:36:33.044Z,49.59
2019-05-16T01:38:11.252Z,49.49
2019-05-16T01:39:11.262Z,49.49
2019-05-16T01:41:04.670Z,49.78
2019-05-16T01:42:04.676Z,49.49
2019-05-16T01:43:58.511Z,49.97
2019-05-16T01:44:57.924Z,50.26
2019-05-16T01:46:50.498Z,49.68
2019-05-16T01:47:50.501Z,49.78
2019-05-16T01:49:43.410Z,49.30
2019-05-16T01:50:43.419Z,49.49
2019-05-16T01:52:38.251Z,49.30
2019-05-16T01:53:36.331Z,49.49
2019-05-16T01:55:29.237Z,49.40
2019-05-16T01:56:29.249Z,49.40
2019-05-16T01:58:22.160Z,49.21
2019-05-16T01:59:22.168Z,49.11
2019-05-16T02:01:15.923Z,49.30
2019-05-16T02:02:15.081Z,48.92
2019-05-16T02:04:11.860Z,48.63
2019-05-16T02:05:08.380Z,48.92
2019-05-16T02:07:00.905Z,49.02
2019-05-16T02:08:00.910Z,49.02
2019-05-16T02:09:53.816Z,49.30
2019-05-16T02:10:53.825Z,49.49
2019-05-16T02:12:48.826Z,49.59
2019-05-16T02:13:48.467Z,49.49
2019-05-16T02:15:39.644Z,49.59
2019-05-16T02:16:39.654Z,49.68
2019-05-16T02:18:32.563Z,49.40
2019-05-16T02:19:32.568Z,49.40
2019-05-16T02:21:25.474Z,49.21
2019-05-16T02:22:25.485Z,49.56
2019-05-16T02:24:18.403Z,49.78
2019-05-16T02:25:18.747Z,49.56
2019-05-16T02:27:11.310Z,49.66
2019-05-16T02:28:11.313Z,49.95
2019-05-16T02:30:04.219Z,49.95
2019-05-16T02:31:04.231Z,50.71
2019-05-16T02:32:57.143Z,49.85
2019-05-16T02:33:57.144Z,50.32
2019-05-16T02:35:54.791Z,50.42
2019-05-16T02:37:10.376Z,50.32
2019-05-16T02:38:42.970Z,51.37
2019-05-16T02:39:42.973Z,50.80
2019-05-16T02:41:35.909Z,51.66
2019-05-16T02:42:35.889Z,51.37
2019-05-16T02:44:31.886Z,51.28
2019-05-16T02:45:32.163Z,50.90
2019-05-16T02:47:21.710Z,51.37
2019-05-16T02:48:21.910Z,51.47
2019-05-16T02:50:14.631Z,51.76
2019-05-16T02:51:14.635Z,52.42
2019-05-16T02:53:07.547Z,52.90
2019-05-16T02:54:10.741Z,52.71
2019-05-16T02:56:01.503Z,52.33
2019-05-16T02:57:01.397Z,52.61
2019-05-16T02:58:53.385Z,52.71
2019-05-16T02:59:53.386Z,52.90
2019-05-16T03:01:46.296Z,52.80
2019-05-16T03:02:46.304Z,52.90
2019-05-16T03:04:43.211Z,53.00
2019-05-16T03:05:41.836Z,52.71
2019-05-16T03:07:41.312Z,53.09
2019-05-16T03:08:32.269Z,53.28
2019-05-16T03:10:25.044Z,53.28
2019-05-16T03:11:25.047Z,53.76
2019-05-16T03:13:17.953Z,53.76
2019-05-16T03:14:20.999Z,53.95
2019-05-16T03:16:11.688Z,54.43
2019-05-16T03:17:11.440Z,54.24
2019-05-16T03:19:03.822Z,54.43
2019-05-16T03:20:03.806Z,54.61
2019-05-16T03:21:56.711Z,54.61
2019-05-16T03:22:56.721Z,54.71
2019-05-16T03:24:51.542Z,54.97
2019-05-16T03:25:50.720Z,54.90
2019-05-16T03:27:42.542Z,54.80
2019-05-16T03:28:42.549Z,55.19
2019-05-16T03:30:35.770Z,55.57
2019-05-16T03:31:35.462Z,54.71
2019-05-16T03:33:35.007Z,54.90
2019-05-16T03:34:33.848Z,55.19
2019-05-16T03:36:25.012Z,55.28
2019-05-16T03:37:24.988Z,55.38
2019-05-16T03:39:14.197Z,55.44
2019-05-16T03:40:14.202Z,55.63
2019-05-16T03:42:07.112Z,55.66
2019-05-16T03:43:07.120Z,56.14
2019-05-16T03:45:02.193Z,56.21
2019-05-16T03:46:02.545Z,56.21
2019-05-16T03:47:52.943Z,56.11
2019-05-16T03:48:52.949Z,56.49
2019-05-16T03:50:45.860Z,56.97
2019-05-16T03:51:45.863Z,57.35
2019-05-16T03:53:40.318Z,57.35
2019-05-16T03:54:41.774Z,57.16
2019-05-16T03:56:31.688Z,57.16
2019-05-16T03:57:31.690Z,57.16
2019-05-16T03:59:24.595Z,57.45
2019-05-16T04:00:24.613Z,57.45
2019-05-16T04:02:17.518Z,57.82
2019-05-16T04:03:20.912Z,57.64
2019-05-16T04:05:11.093Z,58.81
2019-05-16T04:06:11.790Z,59.16
2019-05-16T04:08:15.265Z,58.43
2019-05-16T04:09:03.341Z,58.72
2019-05-16T04:10:56.248Z,58.52
2019-05-16T04:11:56.256Z,58.24
2019-05-16T04:13:50.782Z,58.91
2019-05-16T04:14:51.310Z,58.04
2019-05-16T04:16:42.078Z,57.92
2019-05-16T04:17:42.081Z,58.91
2019-05-16T04:19:34.986Z,58.43
2019-05-16T04:20:34.996Z,58.62
2019-05-16T04:22:27.905Z,58.52
2019-05-16T04:23:30.989Z,58.33
2019-05-16T04:25:21.747Z,59.00
2019-05-16T04:26:21.611Z,58.52
2019-05-16T04:28:13.731Z,58.91
2019-05-16T04:29:13.734Z,59.28
2019-05-16T04:31:07.136Z,59.28
2019-05-16T04:32:07.143Z,59.00
2019-05-16T04:34:01.127Z,58.91
2019-05-16T04:35:02.522Z,59.09
2019-05-16T04:36:52.961Z,58.81
2019-05-16T04:37:52.969Z,59.67
2019-05-16T04:39:45.866Z,59.09
2019-05-16T04:40:45.878Z,59.48
2019-05-16T04:42:41.659Z,59.38
2019-05-16T04:43:41.359Z,59.38
2019-05-16T04:45:31.894Z,59.09
2019-05-16T04:46:31.705Z,59.48
2019-05-16T04:48:24.612Z,59.48
2019-05-16T04:49:24.615Z,59.38
2019-05-16T04:51:17.526Z,60.05
2019-05-16T04:52:17.533Z,59.95
2019-05-16T04:54:11.438Z,59.67
2019-05-16T04:55:11.822Z,59.48
2019-05-16T04:57:03.353Z,59.67
2019-05-16T04:58:03.356Z,60.05
2019-05-16T04:59:56.262Z,59.38
2019-05-16T05:00:56.283Z,59.48
2019-05-16T05:02:51.839Z,59.67
2019-05-16T05:04:01.929Z,59.86
2019-05-16T05:05:42.093Z,59.38
2019-05-16T05:06:42.104Z,59.48
2019-05-16T05:08:49.248Z,59.76
2019-05-16T05:09:35.013Z,59.86
2019-05-16T05:11:30.496Z,59.48
2019-05-16T05:12:27.928Z,59.76
2019-05-16T05:14:21.294Z,59.76
2019-05-16T05:15:21.464Z,59.67
2019-05-16T05:17:13.755Z,59.86
2019-05-16T05:18:13.759Z,59.76
2019-05-16T05:20:06.663Z,59.48
2019-05-16T05:21:06.674Z,60.05
2019-05-16T05:23:00.466Z,60.14
2019-05-16T05:24:00.061Z,59.86
2019-05-16T05:25:52.492Z,60.24
2019-05-16T05:26:52.505Z,59.67
2019-05-16T05:28:45.411Z,59.57
2019-05-16T05:29:45.416Z,59.38
2019-05-16T05:31:43.710Z,60.05
2019-05-16T05:32:38.329Z,60.33
2019-05-16T05:34:31.737Z,59.86
2019-05-16T05:35:31.738Z,59.57
2019-05-16T05:37:24.649Z,59.28
2019-05-16T05:38:24.656Z,59.95
2019-05-16T05:40:20.049Z,59.95
2019-05-16T05:41:19.899Z,59.95
2019-05-16T05:43:10.979Z,59.67
2019-05-16T05:44:11.021Z,59.60
2019-05-16T05:46:03.887Z,59.79
2019-05-16T05:47:03.899Z,59.60
2019-05-16T05:48:56.811Z,60.08
2019-05-16T05:49:56.814Z,59.41
2019-05-16T05:51:50.094Z,59.99
2019-05-16T05:52:51.095Z,59.60
2019-05-16T05:54:42.641Z,59.89
2019-05-16T05:55:42.647Z,59.70
2019-05-16T05:57:35.568Z,59.79
2019-05-16T05:58:35.574Z,59.89
2019-05-16T06:00:30.382Z,59.70
2019-05-16T06:01:31.259Z,59.51
2019-05-16T06:03:22.821Z,59.51
2019-05-16T06:04:21.400Z,59.70
2019-05-16T06:06:14.307Z,59.89
2019-05-16T06:07:14.319Z,59.89
2019-05-16T06:09:07.230Z,59.12
2019-05-16T06:10:07.236Z,59.60
2019-05-16T06:12:00.714Z,60.27
2019-05-16T06:13:00.616Z,60.55
2019-05-16T06:14:53.568Z,59.92
2019-05-16T06:15:53.567Z,59.73
2019-05-16T06:17:46.482Z,59.79
2019-05-16T06:18:46.485Z,60.08
2019-05-16T06:20:40.087Z,59.63
2019-05-16T06:21:44.941Z,59.79
2019-05-16T06:23:32.323Z,59.63
2019-05-16T06:24:32.339Z,59.70
2019-05-16T06:26:25.232Z,59.53
2019-05-16T06:27:25.243Z,59.89
2019-05-16T06:29:20.289Z,59.89
2019-05-16T06:30:20.638Z,59.79
2019-05-16T06:32:11.080Z,59.63
2019-05-16T06:33:11.079Z,59.63
2019-05-16T06:35:04.020Z,58.97
2019-05-16T06:36:04.028Z,59.38
2019-05-16T06:37:56.940Z,58.14
2019-05-16T06:38:56.945Z,57.65
2019-05-16T06:40:52.249Z,58.33
2019-05-16T06:41:50.841Z,58.04
2019-05-16T06:43:42.786Z,58.33
2019-05-16T06:44:42.782Z,57.75
2019-05-16T06:46:52.519Z,57.85
2019-05-16T06:47:35.701Z,57.94
2019-05-16T06:49:30.403Z,57.85
2019-05-16T06:50:29.774Z,57.85
2019-05-16T06:52:21.532Z,58.80
2019-05-16T06:53:21.541Z,58.58
2019-05-16T06:55:14.451Z,58.01
2019-05-16T06:56:14.459Z,57.43
2019-05-16T06:58:07.385Z,57.63
2019-05-16T06:59:07.377Z,57.82
2019-05-16T07:01:03.408Z,58.39
2019-05-16T07:02:00.539Z,58.68
2019-05-16T07:03:53.206Z,57.82
2019-05-16T07:04:53.209Z,58.29
2019-05-16T07:06:58.151Z,58.77
2019-05-16T07:07:46.126Z,58.68
2019-05-16T07:09:41.819Z,59.44
2019-05-16T07:10:39.742Z,59.16
2019-05-16T07:12:34.089Z,58.80
2019-05-16T07:13:31.959Z,58.70
2019-05-16T07:15:24.873Z,58.61
2019-05-16T07:16:24.875Z,57.75
2019-05-16T07:18:20.443Z,57.75
2019-05-16T07:19:17.793Z,57.94
2019-05-16T07:21:11.068Z,58.54
2019-05-16T07:22:11.160Z,58.16
2019-05-16T07:24:03.625Z,57.59
2019-05-16T07:25:03.635Z,57.68
2019-05-16T07:26:56.531Z,57.97
2019-05-16T07:27:56.564Z,57.68
2019-05-16T07:29:50.812Z,57.78
2019-05-16T07:30:50.065Z,57.78
2019-05-16T07:32:42.374Z,58.64
2019-05-16T07:33:42.383Z,58.83
2019-05-16T07:35:35.293Z,57.50
2019-05-16T07:36:35.300Z,57.09
2019-05-16T07:38:30.662Z,57.94
2019-05-16T07:39:30.514Z,58.80
2019-05-16T07:41:21.144Z,58.14
2019-05-16T07:42:21.140Z,58.42
2019-05-16T07:44:14.062Z,58.61
2019-05-16T07:45:14.064Z,58.51
2019-05-16T07:47:06.975Z,58.33
2019-05-16T07:48:06.985Z,58.70
2019-05-16T07:49:59.895Z,58.51
2019-05-16T07:51:00.592Z,59.22
2019-05-16T07:52:52.811Z,59.78
2019-05-16T07:53:52.822Z,59.12
2019-05-16T07:55:45.735Z,59.31
2019-05-16T07:56:45.739Z,58.73
2019-05-16T07:58:40.926Z,59.02
2019-05-16T07:59:40.474Z,58.45
2019-05-16T08:01:31.571Z,58.04
2019-05-16T08:02:31.578Z,57.87
2019-05-16T08:04:24.508Z,58.61
2019-05-16T08:05:24.495Z,58.70
2019-05-16T08:07:19.882Z,59.09
2019-05-16T08:08:23.244Z,59.95
2019-05-16T08:10:10.833Z,59.09
2019-05-16T08:11:12.236Z,59.66
2019-05-16T08:13:03.637Z,59.28
2019-05-16T08:14:03.248Z,58.99
2019-05-16T08:15:56.159Z,57.97
2019-05-16T08:16:56.167Z,58.73
2019-05-16T08:18:50.701Z,58.93
2019-05-16T08:19:50.636Z,58.93
2019-05-16T08:21:41.998Z,58.54
2019-05-16T08:22:42.027Z,57.78
2019-05-16T08:24:36.199Z,57.90
2019-05-16T08:25:34.921Z,58.10
2019-05-16T08:27:30.470Z,57.33
2019-05-16T08:28:30.557Z,57.71
2019-05-16T08:30:21.250Z,57.90
2019-05-16T08:31:21.393Z,57.62
2019-05-16T08:33:13.811Z,57.71
2019-05-16T08:34:13.681Z,57.65
2019-05-16T08:37:30.680Z,57.07
2019-05-16T08:39:01.133Z,56.50
2019-05-16T08:41:52.437Z,56.98
2019-05-16T08:42:52.451Z,57.46
2019-05-16T08:44:45.848Z,57.36
2019-05-16T08:45:45.862Z,57.46
2019-05-16T08:47:41.889Z,56.60
2019-05-16T08:48:41.979Z,56.34
2019-05-16T08:50:08.651Z,56.98
2019-05-16T08:50:35.094Z,56.72
2019-05-16T08:51:33.337Z,56.62
2019-05-16T08:53:24.624Z,56.34
2019-05-16T08:54:24.634Z,56.15
2019-05-16T08:56:17.553Z,56.62
2019-05-16T08:57:27.562Z,55.76
2019-05-16T08:59:13.512Z,55.57
2019-05-16T09:00:14.576Z,55.74
2019-05-16T09:02:03.996Z,56.02
2019-05-16T09:03:03.966Z,56.60
2019-05-16T09:04:56.823Z,57.14
2019-05-16T09:05:56.827Z,57.62
2019-05-16T09:07:49.779Z,57.14
2019-05-16T09:08:49.752Z,56.95
2019-05-16T09:10:38.941Z,57.46
2019-05-16T09:10:57.959Z,57.81
2019-05-16T09:11:49.534Z,57.62
2019-05-16T09:13:36.986Z,58.58
2019-05-16T09:14:38.955Z,58.19
2019-05-16T09:16:28.506Z,57.90
2019-05-16T09:17:28.512Z,58.10
2019-05-16T09:19:21.426Z,58.10
2019-05-16T09:20:21.434Z,57.90
2019-05-16T09:22:14.347Z,57.78
2019-05-16T09:23:14.355Z,58.10
2019-05-16T09:25:08.167Z,59.44
2019-05-16T09:26:07.627Z,59.63
2019-05-16T09:28:00.288Z,58.86
2019-05-16T09:29:00.196Z,58.86
2019-05-16T09:30:53.109Z,58.58
2019-05-16T09:32:07.969Z,58.54
2019-05-16T09:33:47.369Z,58.73
2019-05-16T09:34:47.920Z,59.31
2019-05-16T09:36:38.955Z,59.78
2019-05-16T09:37:38.959Z,59.59
2019-05-16T09:39:31.866Z,58.95
2019-05-16T09:40:31.878Z,58.95
2019-05-16T09:42:27.482Z,59.81
2019-05-16T09:43:28.070Z,59.44
2019-05-16T09:45:18.218Z,60.01
2019-05-16T09:46:18.211Z,59.91
2019-05-16T09:48:11.125Z,58.95
2019-05-16T09:49:19.566Z,59.15
2019-05-16T09:51:06.496Z,58.93
2019-05-16T09:52:04.049Z,59.31
2019-05-16T09:53:56.963Z,59.78
2019-05-16T09:54:57.807Z,59.78
2019-05-16T09:56:49.891Z,59.59
2019-05-16T09:57:49.889Z,59.22
2019-05-16T09:59:42.803Z,59.31
2019-05-16T10:00:42.810Z,59.41
2019-05-16T10:02:36.759Z,59.22
2019-05-16T10:03:37.260Z,59.50
2019-05-16T10:05:28.643Z,58.64
2019-05-16T10:06:28.648Z,59.69
2019-05-16T10:08:21.564Z,59.78
2019-05-16T10:09:21.570Z,59.41
2019-05-16T10:11:17.845Z,59.15
2019-05-16T10:12:16.329Z,58.93
2019-05-16T10:14:07.535Z,59.31
2019-05-16T10:15:07.716Z,59.05
2019-05-16T10:17:00.323Z,59.24
2019-05-16T10:18:00.331Z,59.44
2019-05-16T10:19:53.236Z,59.37
2019-05-16T10:20:53.247Z,59.75
2019-05-16T10:22:46.915Z,57.75
2019-05-16T10:23:46.983Z,58.03
2019-05-16T10:25:39.080Z,58.12
2019-05-16T10:26:39.091Z,59.08
2019-05-16T10:28:32.003Z,58.51
2019-05-16T10:29:32.012Z,57.65
2019-05-16T10:31:41.007Z,58.41
2019-05-16T10:32:27.231Z,58.03
2019-05-16T10:34:17.854Z,57.75
2019-05-16T10:35:17.861Z,57.93
2019-05-16T10:37:10.774Z,58.61
2019-05-16T10:38:10.782Z,58.32
2019-05-16T10:40:04.197Z,57.93
2019-05-16T10:41:04.207Z,58.70
2019-05-16T10:42:57.834Z,58.19
2019-05-16T10:43:57.127Z,58.80
2019-05-16T10:45:53.534Z,58.76
2019-05-16T10:46:51.086Z,58.67
2019-05-16T10:48:43.974Z,59.34
2019-05-16T10:49:43.978Z,59.63
2019-05-16T10:51:37.721Z,58.58
2019-05-16T10:52:36.997Z,59.53
2019-05-16T10:54:29.875Z,59.53
2019-05-16T10:55:29.826Z,58.95
2019-05-16T10:57:22.831Z,60.10
2019-05-16T10:58:35.322Z,59.56
2019-05-16T11:00:36.823Z,59.34
2019-05-16T11:01:27.080Z,59.18
2019-05-16T11:03:08.585Z,59.56
2019-05-16T11:04:08.590Z,58.98
2019-05-16T11:06:05.823Z,59.27
2019-05-16T11:07:01.515Z,59.53
2019-05-16T11:08:56.998Z,59.56
2019-05-16T11:09:59.312Z,58.98
2019-05-16T11:11:47.727Z,59.08
2019-05-16T11:12:54.223Z,59.27
2019-05-16T11:14:40.280Z,58.80
2019-05-16T11:15:40.281Z,59.18
2019-05-16T11:17:33.191Z,58.89
2019-05-16T11:18:33.204Z,58.51
2019-05-16T11:20:26.805Z,59.01
2019-05-16T11:21:26.762Z,57.68
2019-05-16T11:23:23.288Z,57.39
2019-05-16T11:24:19.090Z,58.06
2019-05-16T11:26:11.971Z,57.93
2019-05-16T11:27:11.972Z,57.87
2019-05-16T11:29:07.291Z,58.15
2019-05-16T11:30:07.391Z,57.77
2019-05-16T11:31:57.807Z,58.15
2019-05-16T11:32:57.811Z,57.29
2019-05-16T11:34:50.732Z,57.48
2019-05-16T11:35:50.755Z,57.39
2019-05-16T11:37:43.673Z,56.34
2019-05-16T11:38:43.666Z,56.37
2019-05-16T11:40:36.580Z,57.13
2019-05-16T11:41:36.589Z,56.17
2019-05-16T11:43:29.515Z,55.88
2019-05-16T11:44:29.519Z,56.65
2019-05-16T11:46:22.432Z,56.75
2019-05-16T11:47:22.437Z,56.56
2019-05-16T11:49:16.648Z,56.17
2019-05-16T11:50:17.570Z,56.37
2019-05-16T11:52:08.277Z,56.08
2019-05-16T11:53:08.287Z,56.56
2019-05-16T11:55:01.242Z,56.53
2019-05-16T11:56:02.168Z,56.24
2019-05-16T11:57:54.126Z,57.58
2019-05-16T11:58:56.879Z,57.87
2019-05-16T12:00:48.267Z,57.87
2019-05-16T12:01:47.645Z,57.87
2019-05-16T12:03:39.982Z,57.87
2019-05-16T12:04:39.993Z,57.77
2019-05-16T12:06:32.913Z,58.06
2019-05-16T12:07:34.676Z,57.97
2019-05-16T12:10:27.018Z,57.80
2019-05-16T12:12:20.881Z,57.23
2019-05-16T12:13:27.703Z,57.32
2019-05-16T12:15:11.718Z,57.90
2019-05-16T12:16:14.808Z,58.09
2019-05-16T12:18:05.880Z,57.68
2019-05-16T12:19:06.912Z,57.58
2019-05-16T12:20:57.571Z,58.06
2019-05-16T12:21:57.579Z,58.66
2019-05-16T12:23:50.498Z,58.63
2019-05-16T12:24:50.511Z,58.54
2019-05-16T12:26:43.434Z,58.15
2019-05-16T12:27:43.434Z,57.77
2019-05-16T12:29:37.278Z,57.68
2019-05-16T12:30:37.713Z,57.97
2019-05-16T12:32:29.272Z,57.87
2019-05-16T12:33:29.283Z,57.87
2019-05-16T12:35:22.202Z,58.34
2019-05-16T12:36:22.209Z,58.73
2019-05-16T12:38:16.985Z,57.87
2019-05-16T12:39:17.211Z,57.87
2019-05-16T12:41:08.057Z,58.63
2019-05-16T12:42:08.562Z,57.87
2019-05-16T12:44:00.974Z,58.06
2019-05-16T12:45:00.992Z,57.75
2019-05-16T12:46:53.903Z,58.22
2019-05-16T12:47:53.909Z,58.32
2019-05-16T12:49:47.265Z,59.18
2019-05-16T12:50:48.054Z,58.89
2019-05-16T12:52:39.762Z,58.80
2019-05-16T12:53:39.769Z,58.80
2019-05-16T12:55:32.683Z,58.51
2019-05-16T12:56:32.692Z,59.47
2019-05-16T12:58:37.215Z,58.89
2019-05-16T12:59:26.795Z,58.80
2019-05-16T13:01:20.712Z,59.08
2019-05-16T13:02:21.663Z,59.01
2019-05-16T13:04:12.634Z,57.87
2019-05-16T13:05:11.463Z,57.97
2019-05-16T13:07:08.864Z,57.29
2019-05-16T13:08:04.392Z,57.68
2019-05-16T13:09:57.296Z,57.77
2019-05-16T13:10:57.927Z,57.20
2019-05-16T13:12:50.250Z,57.77
2019-05-16T13:14:02.523Z,57.58
2019-05-16T13:15:43.172Z,57.77
2019-05-16T13:16:43.185Z,57.87
2019-05-16T13:18:36.985Z,57.39
2019-05-16T13:19:43.298Z,57.68
2019-05-16T13:21:29.023Z,58.03
2019-05-16T13:22:29.062Z,58.22
2019-05-16T13:24:22.127Z,59.18
2019-05-16T13:25:22.140Z,58.98
2019-05-16T13:27:21.964Z,59.47
2019-05-16T13:28:15.062Z,59.08
2019-05-16T13:30:07.980Z,59.75
2019-05-16T13:31:08.098Z,60.10
2019-05-16T13:33:00.953Z,59.81
2019-05-16T13:34:00.911Z,60.49
2019-05-16T13:35:53.819Z,61.54
2019-05-16T13:36:53.860Z,63.16
2019-05-16T13:38:48.173Z,64.78
2019-05-16T13:39:47.649Z,64.22
2019-05-16T13:41:39.669Z,63.60
2019-05-16T13:42:39.672Z,64.22
2019-05-16T13:44:32.598Z,64.75
2019-05-16T13:45:32.594Z,64.28
2019-05-16T13:47:26.796Z,64.65
2019-05-16T13:48:26.791Z,64.47
2019-05-16T13:50:18.441Z,65.61
2019-05-16T13:51:19.176Z,65.14
2019-05-16T13:53:11.348Z,66.19
2019-05-16T13:54:11.354Z,67.14
2019-05-16T13:56:07.103Z,67.52
2019-05-16T13:57:06.758Z,67.33
2019-05-16T13:58:57.196Z,68.00
2019-05-16T13:59:57.194Z,68.19
2019-05-16T14:01:50.121Z,68.48
2019-05-16T14:02:50.115Z,68.76
2019-05-16T14:04:43.020Z,68.96
2019-05-16T14:05:43.032Z,68.86
2019-05-16T14:07:37.487Z,68.86
2019-05-16T14:08:37.368Z,69.15
2019-05-16T14:10:29.986Z,69.05
2019-05-16T14:11:29.031Z,69.43
2019-05-16T14:13:22.441Z,69.34
2019-05-16T14:14:34.839Z,69.43
2019-05-16T14:16:17.775Z,69.62
2019-05-16T14:17:17.771Z,69.62
2019-05-16T14:19:08.283Z,69.87
2019-05-16T14:20:14.420Z,69.87
2019-05-16T14:22:01.198Z,69.78
2019-05-16T14:23:01.889Z,70.16
2019-05-16T14:24:54.123Z,70.64
2019-05-16T14:25:54.131Z,70.83
2019-05-16T14:27:47.584Z,70.64
2019-05-16T14:28:48.799Z,70.45
2019-05-16T14:30:39.960Z,70.73
2019-05-16T14:31:39.978Z,70.54
2019-05-16T14:33:32.890Z,70.45
2019-05-16T14:34:32.892Z,70.58
2019-05-16T14:36:27.821Z,70.48
2019-05-16T14:37:26.867Z,70.67
2019-05-16T14:39:19.791Z,71.34
2019-05-16T14:40:18.748Z,71.78
2019-05-16T14:42:11.657Z,71.41
2019-05-16T14:43:11.665Z,71.50
2019-05-16T14:45:11.509Z,71.69
2019-05-16T14:46:08.952Z,72.17
2019-05-16T14:47:58.514Z,72.55
2019-05-16T14:48:58.508Z,72.74
2019-05-16T14:50:51.911Z,72.64
2019-05-16T14:51:51.931Z,72.83
2019-05-16T14:53:46.896Z,73.03
2019-05-16T14:54:46.866Z,73.32
2019-05-16T14:56:38.686Z,73.12
2019-05-16T14:57:37.762Z,73.12
2019-05-16T14:59:30.910Z,73.32
2019-05-16T15:00:30.683Z,74.08
2019-05-16T15:02:23.592Z,73.98
2019-05-16T15:03:23.595Z,73.98
2019-05-16T15:05:16.509Z,74.17
2019-05-16T15:06:18.275Z,74.27
2019-05-16T15:08:09.451Z,74.65
2019-05-16T15:09:09.441Z,74.65
2019-05-16T15:11:02.358Z,74.55
2019-05-16T15:12:02.349Z,74.65
2019-05-16T15:13:57.438Z,73.88
2019-05-16T15:14:57.283Z,73.98
2019-05-16T15:16:51.751Z,74.46
2019-05-16T15:17:48.678Z,74.99
2019-05-16T15:19:41.591Z,75.57
2019-05-16T15:20:41.594Z,75.47
2019-05-16T15:22:34.503Z,75.18
2019-05-16T15:23:34.513Z,75.37
2019-05-16T15:25:27.438Z,75.09
2019-05-16T15:26:27.436Z,74.90
2019-05-16T15:28:20.367Z,74.55
2019-05-16T15:29:20.350Z,74.84
2019-05-16T15:31:13.260Z,73.98
2019-05-16T15:32:13.268Z,74.17
2019-05-16T15:34:06.211Z,74.13
2019-05-16T15:35:07.516Z,74.13
2019-05-16T15:37:00.109Z,74.17
2019-05-16T15:37:59.146Z,74.27
2019-05-16T15:39:54.169Z,74.08
2019-05-16T15:40:52.049Z,73.60
2019-05-16T15:42:44.953Z,73.94
2019-05-16T15:43:44.962Z,74.13
2019-05-16T15:45:42.601Z,74.42
2019-05-16T15:46:37.890Z,74.52
2019-05-16T15:48:30.790Z,74.42
2019-05-16T15:49:30.806Z,74.42
2019-05-16T15:51:23.727Z,74.61
2019-05-16T15:52:23.756Z,75.37
2019-05-16T15:54:17.957Z,74.99
2019-05-16T15:55:17.918Z,74.99
2019-05-16T15:57:09.559Z,75.37
2019-05-16T15:58:10.409Z,75.76
2019-05-16T16:00:02.500Z,75.28
2019-05-16T16:01:02.490Z,75.47
2019-05-16T16:02:55.411Z,75.95
2019-05-16T16:03:55.404Z,76.23
2019-05-16T16:05:48.316Z,77.19
2019-05-16T16:06:48.319Z,77.86
2019-05-16T16:08:41.230Z,79.48
2019-05-16T16:09:41.237Z,79.86
2019-05-16T16:11:34.161Z,80.43
2019-05-16T16:12:34.179Z,80.72
2019-05-16T16:14:27.574Z,81.01
2019-05-16T16:15:28.065Z,80.33
2019-05-16T16:17:19.974Z,80.15
2019-05-16T16:18:21.841Z,80.24
2019-05-16T16:20:12.930Z,79.96
2019-05-16T16:21:12.934Z,80.33
2019-05-16T16:23:06.766Z,80.15
2019-05-16T16:24:09.145Z,80.15
2019-05-16T16:25:59.803Z,79.96
2019-05-16T16:26:58.773Z,80.15
2019-05-16T16:28:51.690Z,81.01
2019-05-16T16:29:51.683Z,80.81
2019-05-16T16:31:44.631Z,81.29
2019-05-16T16:32:44.637Z,81.96
2019-05-16T16:34:37.575Z,82.72
2019-05-16T16:35:38.065Z,82.43
2019-05-16T16:37:30.462Z,83.58
2019-05-16T16:38:30.468Z,84.06
2019-05-16T16:40:23.382Z,84.53
2019-05-16T16:41:23.387Z,84.44
2019-05-16T16:43:16.295Z,84.63
2019-05-16T16:44:17.464Z,84.44
2019-05-16T16:46:13.385Z,85.01
2019-05-16T16:47:09.218Z,85.11
2019-05-16T16:49:02.132Z,84.92
2019-05-16T16:50:02.140Z,85.30
2019-05-16T16:51:57.234Z,85.21
2019-05-16T16:52:56.579Z,85.01
2019-05-16T16:54:47.968Z,85.01
2019-05-16T16:55:47.963Z,85.01
2019-05-16T16:57:40.871Z,85.68
2019-05-16T16:58:40.880Z,85.58
2019-05-16T17:00:33.792Z,85.11
2019-05-16T17:01:33.795Z,85.39
2019-05-16T17:03:27.242Z,85.58
2019-05-16T17:04:26.806Z,85.49
2019-05-16T17:06:19.627Z,85.49
2019-05-16T17:07:19.628Z,85.58
2019-05-16T17:09:12.534Z,85.77
2019-05-16T17:10:12.544Z,85.58
2019-05-16T17:12:06.677Z,85.68
2019-05-16T17:13:06.785Z,85.91
2019-05-16T17:14:58.373Z,85.53
2019-05-16T17:15:58.402Z,85.72
2019-05-16T17:17:51.314Z,85.53
2019-05-16T17:18:51.317Z,85.77
2019-05-16T17:20:44.229Z,86.39
2019-05-16T17:21:55.401Z,86.20
2019-05-16T17:23:37.221Z,85.82
2019-05-16T17:24:37.149Z,86.20
2019-05-16T17:26:30.064Z,86.20
2019-05-16T17:27:30.066Z,86.30
2019-05-16T17:29:22.981Z,86.30
2019-05-16T17:30:22.981Z,86.39
2019-05-16T17:32:16.688Z,86.58
2019-05-16T17:33:18.233Z,86.63
2019-05-16T17:35:08.821Z,86.73
2019-05-16T17:36:09.499Z,87.06
2019-05-16T17:38:01.734Z,86.73
2019-05-16T17:39:01.743Z,87.68
2019-05-16T17:40:56.820Z,87.06
2019-05-16T17:41:57.730Z,87.73
2019-05-16T17:43:47.565Z,87.54
2019-05-16T17:44:47.575Z,87.44
2019-05-16T17:46:41.020Z,87.82
2019-05-16T17:47:40.493Z,87.82
2019-05-16T17:49:33.401Z,87.82
2019-05-16T17:50:33.412Z,87.73
2019-05-16T17:52:27.357Z,87.92
2019-05-16T17:53:26.732Z,87.54
2019-05-16T17:55:19.239Z,87.73
2019-05-16T17:56:19.249Z,87.63
2019-05-16T17:58:12.164Z,87.35
2019-05-16T17:59:12.196Z,87.54
2019-05-16T18:01:06.797Z,87.73
2019-05-16T18:02:06.493Z,87.44
2019-05-16T18:03:58.000Z,87.82
2019-05-16T18:04:58.007Z,87.35
2019-05-16T18:06:50.920Z,87.82
2019-05-16T18:07:50.924Z,87.92
2019-05-16T18:09:43.848Z,87.82
2019-05-16T18:10:43.856Z,87.92
2019-05-16T18:12:37.344Z,87.92
2019-05-16T18:13:37.216Z,87.63
2019-05-16T18:15:29.685Z,87.73
2019-05-16T18:16:29.695Z,87.92
2019-05-16T18:18:22.608Z,88.01
2019-05-16T18:19:22.613Z,88.01
2019-05-16T18:21:16.973Z,88.73
2019-05-16T18:22:15.530Z,88.73
2019-05-16T18:24:08.444Z,89.12
2019-05-16T18:25:08.461Z,89.21
2019-05-16T18:27:01.380Z,89.31
2019-05-16T18:28:01.365Z,89.69
2019-05-16T18:29:54.279Z,89.50
2019-05-16T18:30:56.500Z,89.88
2019-05-16T18:32:47.195Z,89.78
2019-05-16T18:33:47.201Z,89.69